createdAt,value
2022-12-23T00:01:53.602Z,13.28
2022-12-23T00:06:56.852Z,12.76
2022-12-23T00:12:18.502Z,10.26
2022-12-23T00:17:22.947Z,10.23
2022-12-23T00:22:46.817Z,12.28
2022-12-23T00:28:01.698Z,12.79
2022-12-23T00:33:05.732Z,12.52
2022-12-23T00:38:09.033Z,11.36
2022-12-23T00:43:12.156Z,12.65
2022-12-23T00:48:34.218Z,13.16
2022-12-23T00:53:37.502Z,12.34
2022-12-23T00:58:40.631Z,11.26
2022-12-23T01:04:02.361Z,12.79
2022-12-23T01:09:05.664Z,13.18
2022-12-23T01:14:09.561Z,11.28
2022-12-23T01:19:13.104Z,9.38
2022-12-23T01:24:16.231Z,10.32
2022-12-23T01:29:19.418Z,12.46
2022-12-23T01:34:22.436Z,13.32
2022-12-23T01:39:25.529Z,12.88
2022-12-23T01:44:56.521Z,10.38
2022-12-23T01:50:31.384Z,11.27
2022-12-23T01:56:00.665Z,13.10
2022-12-23T02:01:24.558Z,12.37
2022-12-23T02:07:01.567Z,9.80
2022-12-23T02:12:30.784Z,9.83
2022-12-23T02:18:04.626Z,12.40
2022-12-23T02:24:02.300Z,13.47
2022-12-23T02:29:52.606Z,12.57
2022-12-23T02:35:34.304Z,10.05
2022-12-23T02:40:49.298Z,10.42
2022-12-23T02:46:00.552Z,12.96
2022-12-23T02:51:07.077Z,12.87
2022-12-23T02:56:14.225Z,10.55
2022-12-23T03:01:19.838Z,8.99
2022-12-23T03:06:40.783Z,7.97
2022-12-23T03:12:09.020Z,8.67
2022-12-23T03:17:31.322Z,11.52
2022-12-23T03:23:03.926Z,12.79
2022-12-23T03:28:18.898Z,13.44
2022-12-23T03:33:39.925Z,12.67
2022-12-23T03:38:46.071Z,10.10
2022-12-23T03:44:02.436Z,8.42
2022-12-23T03:49:17.338Z,8.88
2022-12-23T03:54:31.637Z,11.77
2022-12-23T03:59:42.765Z,13.05
2022-12-23T04:05:00.937Z,12.58
2022-12-23T04:10:07.893Z,9.93
2022-12-23T04:15:13.411Z,10.28
2022-12-23T04:20:17.421Z,12.57
2022-12-23T04:25:21.027Z,13.44
2022-12-23T04:30:28.068Z,12.77
2022-12-23T04:35:36.689Z,10.18
2022-12-23T04:40:39.772Z,11.49
2022-12-23T04:45:42.977Z,12.51
2022-12-23T04:50:46.106Z,11.28
2022-12-23T04:55:52.478Z,9.26
2022-12-23T05:01:22.094Z,10.44
2022-12-23T05:06:25.310Z,12.55
2022-12-23T05:11:28.408Z,12.94
2022-12-23T05:16:31.896Z,11.05
2022-12-23T05:21:35.134Z,9.04
2022-12-23T05:26:38.245Z,8.42
2022-12-23T05:31:41.472Z,10.79
2022-12-23T05:36:44.487Z,11.94
2022-12-23T05:41:47.663Z,12.55
2022-12-23T05:46:50.905Z,11.04
2022-12-23T05:51:53.973Z,8.90
2022-12-23T05:56:57.081Z,10.13
2022-12-23T06:02:00.255Z,12.24
2022-12-23T06:07:03.814Z,13.32
2022-12-23T06:12:07.795Z,12.81
2022-12-23T06:17:10.847Z,10.31
2022-12-23T06:22:14.931Z,9.63
2022-12-23T06:27:19.098Z,11.70
2022-12-23T06:32:22.208Z,12.44
2022-12-23T06:37:25.414Z,11.86
2022-12-23T06:42:28.591Z,9.91
2022-12-23T06:47:32.063Z,11.38
2022-12-23T06:52:35.349Z,11.92
2022-12-23T06:57:38.450Z,10.05
2022-12-23T07:02:41.776Z,8.76
2022-12-23T07:07:45.107Z,10.68
2022-12-23T07:12:50.850Z,11.77
2022-12-23T07:17:55.504Z,11.99
2022-12-23T07:22:59.103Z,9.80
2022-12-23T07:28:02.117Z,10.25
2022-12-23T07:33:05.207Z,11.99
2022-12-23T07:38:09.899Z,12.53
2022-12-23T07:43:13.064Z,10.94
2022-12-23T07:48:16.167Z,9.09
2022-12-23T07:53:19.279Z,10.52
2022-12-23T07:58:22.589Z,12.04
2022-12-23T08:03:25.894Z,11.99
2022-12-23T08:08:29.617Z,9.62
2022-12-23T08:13:36.065Z,9.33
2022-12-23T08:18:41.802Z,11.70
2022-12-23T08:23:47.513Z,12.88
2022-12-23T08:28:53.746Z,12.65
2022-12-23T08:34:00.188Z,10.25
2022-12-23T08:39:10.481Z,8.58
2022-12-23T08:44:15.217Z,7.51
2022-12-23T08:49:18.394Z,8.10
2022-12-23T08:54:22.489Z,10.96
2022-12-23T08:59:25.894Z,12.44
2022-12-23T09:04:28.976Z,12.99
2022-12-23T09:09:32.114Z,11.09
2022-12-23T09:14:35.399Z,9.03
2022-12-23T09:19:38.432Z,9.07
2022-12-23T09:24:41.606Z,11.77
2022-12-23T09:29:44.738Z,12.86
2022-12-23T09:34:47.930Z,12.44
2022-12-23T09:39:51.127Z,9.97
2022-12-23T09:45:40.732Z,9.94
2022-12-23T09:50:45.730Z,11.84
2022-12-23T09:56:02.660Z,12.58
2022-12-23T10:01:45.316Z,10.77
2022-12-23T10:07:03.248Z,8.59
2022-12-23T10:12:27.209Z,7.57
2022-12-23T10:17:41.984Z,9.99
2022-12-23T10:22:47.417Z,12.01
2022-12-23T10:27:50.639Z,12.89
2022-12-23T10:33:23.374Z,12.40
2022-12-23T10:38:53.276Z,9.84
2022-12-23T10:44:23.105Z,8.31
2022-12-23T10:49:45.584Z,8.89
2022-12-23T10:54:49.525Z,11.52
2022-12-23T10:59:52.703Z,12.67
2022-12-23T11:04:55.915Z,12.33
2022-12-23T11:10:13.492Z,10.14
2022-12-23T11:15:39.567Z,8.61
2022-12-23T11:20:46.635Z,9.22
2022-12-23T11:25:59.744Z,11.91
2022-12-23T11:31:12.138Z,13.07
2022-12-23T11:36:24.963Z,12.64
2022-12-23T11:41:35.379Z,10.30
2022-12-23T11:46:38.716Z,8.83
2022-12-23T11:51:44.643Z,9.25
2022-12-23T11:56:53.853Z,12.13
2022-12-23T12:02:02.600Z,13.52
2022-12-23T12:07:12.312Z,13.18
2022-12-23T12:12:21.890Z,10.75
2022-12-23T12:17:38.384Z,9.24
2022-12-23T12:22:59.409Z,10.47
2022-12-23T12:28:13.882Z,12.99
2022-12-23T12:33:28.260Z,13.68
2022-12-23T12:38:33.737Z,12.03
2022-12-23T12:43:48.947Z,10.14
2022-12-23T12:48:57.932Z,8.95
2022-12-23T12:54:45.863Z,9.30
2022-12-23T13:00:05.222Z,12.28
2022-12-23T13:05:53.579Z,13.50
2022-12-23T13:11:09.771Z,12.76
2022-12-23T13:17:11.537Z,10.45
2022-12-23T13:22:33.586Z,8.96
2022-12-23T13:28:08.195Z,8.04
2022-12-23T13:33:28.559Z,9.01
2022-12-23T13:38:56.457Z,11.90
2022-12-23T13:44:06.721Z,13.08
2022-12-23T13:49:57.068Z,12.87
2022-12-23T13:55:38.975Z,10.50
2022-12-23T14:00:43.275Z,9.11
2022-12-23T14:05:51.047Z,8.22
2022-12-23T14:11:12.642Z,8.76
2022-12-23T14:16:47.388Z,11.63
2022-12-23T14:22:13.142Z,13.24
2022-12-23T14:27:40.631Z,12.71
2022-12-23T14:32:54.365Z,10.24
2022-12-23T14:38:16.026Z,8.81
2022-12-23T14:43:22.336Z,7.87
2022-12-23T14:48:34.907Z,8.63
2022-12-23T14:53:57.951Z,11.60
2022-12-23T14:59:04.057Z,13.02
2022-12-23T15:04:17.100Z,12.72
2022-12-23T15:09:26.813Z,10.39
2022-12-23T15:14:47.173Z,8.90
2022-12-23T15:19:51.726Z,8.00
2022-12-23T15:24:55.940Z,9.76
2022-12-23T15:30:00.197Z,12.20
2022-12-23T15:35:06.971Z,13.28
2022-12-23T15:40:42.030Z,12.64
2022-12-23T15:45:45.444Z,10.05
2022-12-23T15:50:51.507Z,9.88
2022-12-23T15:55:55.438Z,12.10
2022-12-23T16:01:01.040Z,12.95
2022-12-23T16:06:26.029Z,12.38
2022-12-23T16:11:38.579Z,9.96
2022-12-23T16:16:43.687Z,8.58
2022-12-23T16:21:46.910Z,10.08
2022-12-23T16:26:50.119Z,12.03
2022-12-23T16:32:01.448Z,12.80
2022-12-23T16:37:05.354Z,13.43
2022-12-23T16:42:08.654Z,12.99
2022-12-23T16:47:17.577Z,10.54
2022-12-23T16:52:24.474Z,8.92
2022-12-23T16:57:27.603Z,7.95
2022-12-23T17:02:34.633Z,8.65
2022-12-23T17:07:43.219Z,11.49
2022-12-23T17:12:50.761Z,12.81
2022-12-23T17:17:54.772Z,13.59
2022-12-23T17:23:00.338Z,12.85
2022-12-23T17:28:10.112Z,10.45
2022-12-23T17:33:19.467Z,8.85
2022-12-23T17:38:22.871Z,7.77
2022-12-23T17:43:26.995Z,8.21
2022-12-23T17:48:32.084Z,11.25
2022-12-23T17:53:35.511Z,12.90
2022-12-23T17:58:38.670Z,13.64
2022-12-23T18:03:41.802Z,13.11
2022-12-23T18:08:46.228Z,10.62
2022-12-23T18:13:52.859Z,9.00
2022-12-23T18:18:56.313Z,7.83
2022-12-23T18:24:00.444Z,8.54
2022-12-23T18:29:03.671Z,11.55
2022-12-23T18:34:06.863Z,12.79
2022-12-23T18:39:10.275Z,13.55
2022-12-23T18:44:21.261Z,12.90
2022-12-23T18:49:24.489Z,10.28
2022-12-23T18:54:28.316Z,8.65
2022-12-23T18:59:33.277Z,8.99
2022-12-23T19:04:36.359Z,11.78
2022-12-23T19:09:39.565Z,12.89
2022-12-23T19:14:42.770Z,13.60
2022-12-23T19:19:45.884Z,12.95
2022-12-23T19:25:04.510Z,10.44
2022-12-23T19:30:14.782Z,8.70
2022-12-23T19:35:18.072Z,7.66
2022-12-23T19:40:23.929Z,8.35
2022-12-23T19:45:27.322Z,11.45
2022-12-23T19:50:30.756Z,12.92
2022-12-23T19:55:34.147Z,13.52
2022-12-23T20:00:37.353Z,11.72
2022-12-23T20:05:40.873Z,9.63
2022-12-23T20:10:44.695Z,8.35
2022-12-23T20:15:47.893Z,7.51
2022-12-23T20:20:51.928Z,8.25
2022-12-23T20:25:55.842Z,11.27
2022-12-23T20:31:22.663Z,12.69
2022-12-23T20:36:31.278Z,13.36
2022-12-23T20:41:35.073Z,12.74
2022-12-23T20:46:38.317Z,10.18
2022-12-23T20:51:41.598Z,8.52
2022-12-23T20:56:44.695Z,9.72
2022-12-23T21:01:47.961Z,12.04
2022-12-23T21:06:51.320Z,12.79
2022-12-23T21:11:54.636Z,12.20
2022-12-23T21:16:57.763Z,9.67
2022-12-23T21:22:01.630Z,7.80
2022-12-23T21:27:04.768Z,8.07
2022-12-23T21:32:07.981Z,11.07
2022-12-23T21:37:11.087Z,11.79
2022-12-23T21:42:14.098Z,9.56
2022-12-23T21:47:17.518Z,7.66
2022-12-23T21:52:20.809Z,6.58
2022-12-23T21:57:24.221Z,7.18
2022-12-23T22:02:27.463Z,10.26
2022-12-23T22:07:30.673Z,11.69
2022-12-23T22:12:33.850Z,11.45
2022-12-23T22:17:37.083Z,9.29
2022-12-23T22:22:40.169Z,7.95
2022-12-23T22:27:45.332Z,7.11
2022-12-23T22:32:48.521Z,6.48
2022-12-23T22:37:51.649Z,7.23
2022-12-23T22:42:54.835Z,10.34
2022-12-23T22:47:57.946Z,11.97
2022-12-23T22:53:01.259Z,11.88
2022-12-23T22:58:04.365Z,9.76
2022-12-23T23:03:07.570Z,8.37
2022-12-23T23:08:12.622Z,7.41
2022-12-23T23:13:15.766Z,6.61
2022-12-23T23:18:19.258Z,5.99
2022-12-23T23:23:22.474Z,6.83
2022-12-23T23:28:25.666Z,10.13
2022-12-23T23:33:28.781Z,11.94
2022-12-23T23:38:31.978Z,11.80
2022-12-23T23:43:35.291Z,9.50
2022-12-23T23:48:39.624Z,8.00
2022-12-23T23:53:42.735Z,6.99
2022-12-23T23:58:45.947Z,6.27
